Time;durP1;ratioP1;P1;durP2;ratioP2;P2;SDS_P1;SDS_P2;PMS_P1;PMS_P2;Temp;Humidity;BMP_temperature;BMP_pressure;BME280_temperature;BME280_humidity;BME280_pressure;Samples;Min_cycle;Max_cycle;Signal;HPM_P1;HPM_P2
2023/12/07 00:01:37;;;;;;;18.17;10.70;;;2.30;99.90;;;;;;5060134;28;20036;-64
2023/12/07 00:04:03;;;;;;;17.52;10.45;;;2.30;99.90;;;;;;5056967;28;20051;-63
2023/12/07 00:06:29;;;;;;;20.95;10.30;;;2.30;99.90;;;;;;5060992;28;20046;-64
2023/12/07 00:08:55;;;;;;;18.70;11.55;;;2.40;99.90;;;;;;5066647;28;20040;-63
2023/12/07 00:11:24;;;;;;;20.48;11.77;;;2.30;99.90;;;;;;5060554;28;20045;-64
2023/12/07 00:13:50;;;;;;;17.20;10.50;;;2.30;99.90;;;;;;5046645;28;20748;-64
2023/12/07 00:16:16;;;;;;;20.45;11.35;;;2.50;99.90;;;;;;5046896;28;20045;-64
2023/12/07 00:18:42;;;;;;;18.38;10.65;;;2.30;99.90;;;;;;5065039;28;20042;-64
2023/12/07 00:21:11;;;;;;;19.58;10.73;;;2.40;99.90;;;;;;5056254;28;20045;-65
2023/12/07 00:23:38;;;;;;;19.65;10.63;;;2.40;99.90;;;;;;5049712;28;20041;-64
2023/12/07 00:26:04;;;;;;;16.42;10.10;;;2.30;99.90;;;;;;5037390;28;20060;-64
2023/12/07 00:28:30;;;;;;;17.70;10.75;;;2.30;99.90;;;;;;5043582;28;20048;-64
2023/12/07 00:30:56;;;;;;;17.40;10.70;;;2.30;99.90;;;;;;5054579;28;20041;-64
2023/12/07 00:33:22;;;;;;;15.27;9.75;;;2.30;99.90;;;;;;5055400;28;20056;-64
2023/12/07 00:35:48;;;;;;;20.67;11.07;;;2.30;99.90;;;;;;5055724;28;20041;-64
2023/12/07 00:38:14;;;;;;;16.25;10.75;;;3.10;99.90;;;;;;5062309;28;20048;-64
2023/12/07 00:40:40;;;;;;;17.02;10.05;;;2.30;99.90;;;;;;5059739;28;20097;-64
2023/12/07 00:43:07;;;;;;;17.05;10.57;;;3.10;99.90;;;;;;5060067;28;20048;-64
2023/12/07 00:45:33;;;;;;;16.83;10.52;;;3.10;99.90;;;;;;5051148;28;20041;-63
2023/12/07 00:47:59;;;;;;;15.63;9.52;;;2.30;99.90;;;;;;5045408;28;20041;-64
2023/12/07 00:50:25;;;;;;;18.48;10.27;;;2.30;99.90;;;;;;5062871;28;20135;-63
2023/12/07 00:52:51;;;;;;;16.83;10.52;;;2.30;99.90;;;;;;5066034;28;20126;-64
2023/12/07 00:55:16;;;;;;;15.30;9.90;;;2.30;99.90;;;;;;5062154;28;20044;-64
2023/12/07 00:57:42;;;;;;;18.73;9.30;;;2.30;99.90;;;;;;5060462;28;20070;-65
2023/12/07 01:00:08;;;;;;;16.40;10.02;;;2.30;99.90;;;;;;5062535;28;20442;-64
2023/12/07 01:02:34;;;;;;;15.82;8.93;;;2.30;99.90;;;;;;5062803;28;20045;-64
2023/12/07 01:05:00;;;;;;;15.18;9.35;;;2.30;99.90;;;;;;5043611;28;20059;-63
2023/12/07 01:07:26;;;;;;;20.48;10.18;;;2.30;99.90;;;;;;5062517;28;20050;-64
2023/12/07 01:09:52;;;;;;;14.75;9.07;;;2.30;99.90;;;;;;5055901;28;20120;-65
2023/12/07 01:12:17;;;;;;;15.02;9.45;;;2.30;99.90;;;;;;5049443;28;20401;-64
2023/12/07 01:14:43;;;;;;;15.98;10.07;;;2.30;99.90;;;;;;5043905;28;20057;-64
2023/12/07 01:17:09;;;;;;;14.38;8.63;;;2.30;99.90;;;;;;5058527;28;20049;-64
2023/12/07 01:19:34;;;;;;;15.52;9.25;;;2.30;99.90;;;;;;5060939;28;20055;-64
2023/12/07 01:22:00;;;;;;;14.95;9.48;;;2.20;99.90;;;;;;5056742;28;20056;-64
2023/12/07 01:24:26;;;;;;;16.83;9.07;;;2.60;99.90;;;;;;5074964;28;20051;-63
2023/12/07 01:26:52;;;;;;;17.40;9.48;;;2.30;99.90;;;;;;5062534;28;20036;-64
2023/12/07 01:29:18;;;;;;;15.43;9.02;;;2.30;99.90;;;;;;5069967;28;20133;-64
2023/12/07 01:31:44;;;;;;;18.70;9.25;;;2.30;99.90;;;;;;5055934;28;20051;-64
2023/12/07 01:34:10;;;;;;;15.30;9.05;;;2.20;99.90;;;;;;5057662;28;20086;-64
2023/12/07 01:36:35;;;;;;;16.88;9.05;;;2.70;99.90;;;;;;5055906;28;20040;-64
2023/12/07 01:39:01;;;;;;;14.95;9.20;;;2.20;99.90;;;;;;5062277;28;20090;-64
2023/12/07 01:41:27;;;;;;;18.15;8.55;;;2.20;99.90;;;;;;5037304;28;20050;-64
2023/12/07 01:43:53;;;;;;;16.92;9.13;;;2.20;99.90;;;;;;5060927;28;20056;-64
2023/12/07 01:46:19;;;;;;;17.00;9.07;;;2.20;99.90;;;;;;5059181;28;20086;-64
2023/12/07 01:48:49;;;;;;;15.32;9.15;;;2.20;99.90;;;;;;5055362;28;20036;-64
2023/12/07 01:51:18;;;;;;;15.95;9.07;;;2.20;99.90;;;;;;5034750;28;20045;-64
2023/12/07 01:53:43;;;;;;;15.43;8.60;;;2.20;99.90;;;;;;5050556;28;20453;-64
2023/12/07 01:56:10;;;;;;;15.88;8.35;;;2.20;99.90;;;;;;5045362;28;20041;-64
2023/12/07 01:58:37;;;;;;;15.65;8.88;;;2.20;99.90;;;;;;5056983;28;20095;-64
2023/12/07 02:01:03;;;;;;;20.98;8.55;;;2.20;99.90;;;;;;5041818;28;20060;-64
2023/12/07 02:03:31;;;;;;;13.30;8.98;;;2.20;99.90;;;;;;5058893;28;20083;-64
2023/12/07 02:05:58;;;;;;;13.55;8.63;;;2.20;99.90;;;;;;5050885;28;20063;-64
2023/12/07 02:08:24;;;;;;;14.73;8.27;;;2.20;99.90;;;;;;5058709;28;20055;-65
2023/12/07 02:10:52;;;;;;;13.80;8.40;;;2.40;99.90;;;;;;5061580;28;20044;-65
2023/12/07 02:13:19;;;;;;;14.70;8.80;;;2.20;99.90;;;;;;5043737;28;20053;-65
2023/12/07 02:15:45;;;;;;;13.13;7.95;;;2.30;99.90;;;;;;5059655;28;20090;-65
2023/12/07 02:18:16;;;;;;;16.77;8.43;;;2.20;99.90;;;;;;5048660;28;20080;-65
2023/12/07 02:20:54;;;;;;;14.25;8.80;;;2.20;99.90;;;;;;5027447;28;20040;-65
2023/12/07 02:23:21;;;;;;;14.30;8.63;;;2.80;99.90;;;;;;5053936;28;20056;-63
2023/12/07 02:25:51;;;;;;;13.45;7.80;;;2.20;99.90;;;;;;5058040;28;20048;-64
2023/12/07 02:28:17;;;;;;;14.55;8.38;;;2.20;99.90;;;;;;5049198;28;20138;-64
2023/12/07 02:30:43;;;;;;;15.52;7.35;;;2.50;99.90;;;;;;5047601;28;20143;-66
2023/12/07 02:33:09;;;;;;;12.80;7.93;;;2.90;99.90;;;;;;5063690;28;20059;-66
2023/12/07 02:35:37;;;;;;;14.73;8.70;;;2.20;99.90;;;;;;5054951;28;20405;-65
2023/12/07 02:38:03;;;;;;;13.13;8.30;;;2.20;99.90;;;;;;5055327;28;20048;-65
2023/12/07 02:40:30;;;;;;;13.48;7.85;;;2.20;99.90;;;;;;5077748;28;20049;-65
2023/12/07 02:42:57;;;;;;;15.15;8.20;;;2.20;99.90;;;;;;5051038;28;20053;-65
2023/12/07 02:45:23;;;;;;;13.13;8.43;;;2.20;99.90;;;;;;5056950;28;20480;-65
2023/12/07 02:47:49;;;;;;;17.92;8.75;;;2.40;99.90;;;;;;5058993;28;20044;-65
2023/12/07 02:50:15;;;;;;;19.15;9.38;;;2.40;99.90;;;;;;5044690;28;20110;-65
2023/12/07 02:52:41;;;;;;;13.23;7.75;;;2.10;99.90;;;;;;5066258;28;20226;-65
2023/12/07 02:55:07;;;;;;;14.40;8.05;;;2.10;99.90;;;;;;5049593;28;20052;-66
2023/12/07 02:57:35;;;;;;;12.48;7.57;;;2.20;99.90;;;;;;5078125;28;20048;-65
2023/12/07 03:00:06;;;;;;;12.32;7.57;;;2.90;99.90;;;;;;5068349;28;20041;-65
2023/12/07 03:02:36;;;;;;;12.30;8.20;;;2.10;99.90;;;;;;5049697;28;20402;-65
2023/12/07 03:05:03;;;;;;;14.00;7.82;;;2.10;99.90;;;;;;5048367;28;20634;-65
2023/12/07 03:07:29;;;;;;;13.80;7.95;;;2.10;99.90;;;;;;5060219;28;20055;-65
2023/12/07 03:09:55;;;;;;;11.70;7.93;;;2.10;99.90;;;;;;5068221;28;20056;-63
2023/12/07 03:12:21;;;;;;;12.88;8.00;;;2.50;99.90;;;;;;5061976;28;20036;-64
2023/12/07 03:14:46;;;;;;;15.27;8.52;;;2.10;99.90;;;;;;5065679;28;20107;-64
2023/12/07 03:17:13;;;;;;;13.43;8.27;;;2.10;99.90;;;;;;5059022;28;20048;-65
2023/12/07 03:19:40;;;;;;;11.15;7.15;;;2.10;99.90;;;;;;5064395;28;20405;-64
2023/12/07 03:22:06;;;;;;;12.48;8.23;;;2.10;99.90;;;;;;5051572;28;20127;-63
2023/12/07 03:24:34;;;;;;;11.95;7.60;;;2.10;99.90;;;;;;5064308;28;20048;-64
2023/12/07 03:26:59;;;;;;;13.57;7.80;;;2.10;99.90;;;;;;5070113;28;20670;-65
2023/12/07 03:29:25;;;;;;;14.55;7.68;;;2.10;99.90;;;;;;5062587;28;20045;-64
2023/12/07 03:31:51;;;;;;;14.07;8.18;;;2.50;99.90;;;;;;5055582;28;20045;-65
2023/12/07 03:34:16;;;;;;;13.73;8.35;;;2.10;99.90;;;;;;5047797;28;20093;-65
2023/12/07 03:36:46;;;;;;;12.52;8.10;;;2.10;99.90;;;;;;5051690;28;20052;-65
2023/12/07 03:39:13;;;;;;;13.32;7.63;;;2.10;99.90;;;;;;5056405;28;20068;-66
2023/12/07 03:41:39;;;;;;;12.00;8.23;;;2.10;99.90;;;;;;5064667;28;20852;-66
2023/12/07 03:44:04;;;;;;;12.98;8.02;;;2.10;99.90;;;;;;5066036;28;20151;-66
2023/12/07 03:46:30;;;;;;;13.40;7.70;;;2.00;99.90;;;;;;5062654;28;20622;-65
2023/12/07 03:48:56;;;;;;;14.10;7.72;;;2.80;99.90;;;;;;5059692;28;20071;-64
2023/12/07 03:51:22;;;;;;;13.73;8.45;;;2.00;99.90;;;;;;5057035;28;20037;-64
2023/12/07 03:53:47;;;;;;;16.23;7.85;;;2.00;99.90;;;;;;5047024;28;20045;-64
2023/12/07 03:56:27;;;;;;;15.55;7.82;;;2.00;99.90;;;;;;5048884;28;20045;-64
2023/12/07 03:58:53;;;;;;;13.45;7.80;;;2.00;99.90;;;;;;5057952;28;20076;-65
2023/12/07 04:01:23;;;;;;;12.27;7.78;;;1.90;99.90;;;;;;5061951;28;20082;-66
2023/12/07 04:03:49;;;;;;;14.50;7.85;;;1.90;99.90;;;;;;5037918;28;20091;-66
2023/12/07 04:06:15;;;;;;;14.07;7.88;;;1.90;99.90;;;;;;5051063;28;20087;-66
2023/12/07 04:08:41;;;;;;;15.23;8.20;;;1.90;99.90;;;;;;5065190;28;20074;-66
2023/12/07 04:11:06;;;;;;;12.32;7.18;;;1.90;99.90;;;;;;5053475;28;20136;-66
2023/12/07 04:13:32;;;;;;;15.23;7.57;;;1.80;99.90;;;;;;5055332;28;20044;-66
2023/12/07 04:15:58;;;;;;;12.82;7.60;;;2.10;99.90;;;;;;5057075;28;20040;-66
2023/12/07 04:18:23;;;;;;;12.27;8.15;;;1.80;99.90;;;;;;5059335;28;20057;-66
2023/12/07 04:20:49;;;;;;;13.88;7.72;;;1.80;99.90;;;;;;5056794;28;20106;-67
2023/12/07 04:23:15;;;;;;;12.70;7.65;;;1.80;99.90;;;;;;5060335;28;20032;-67
2023/12/07 04:25:41;;;;;;;15.55;8.23;;;1.70;99.90;;;;;;5065732;28;20093;-67
2023/12/07 04:28:07;;;;;;;12.52;7.53;;;1.70;99.90;;;;;;5049604;28;20061;-67
2023/12/07 04:30:32;;;;;;;12.23;7.75;;;1.70;99.90;;;;;;5051615;28;20077;-66
2023/12/07 04:32:58;;;;;;;14.80;8.73;;;1.70;99.90;;;;;;5055748;28;20070;-66
2023/12/07 04:35:24;;;;;;;14.98;8.63;;;1.70;99.90;;;;;;5060512;28;20067;-65
2023/12/07 04:37:50;;;;;;;15.88;8.48;;;1.70;99.90;;;;;;5057302;28;20048;-65
2023/12/07 04:40:15;;;;;;;14.90;9.05;;;1.80;99.90;;;;;;5047862;28;20083;-65
2023/12/07 04:42:41;;;;;;;15.07;8.43;;;2.10;99.90;;;;;;5034760;28;20075;-65
2023/12/07 04:45:07;;;;;;;12.52;8.02;;;1.60;99.90;;;;;;5050209;28;20056;-65
2023/12/07 04:47:33;;;;;;;14.30;8.45;;;1.60;99.90;;;;;;5054040;28;20691;-66
2023/12/07 04:49:59;;;;;;;16.23;8.93;;;1.60;99.90;;;;;;5051713;28;20135;-65
2023/12/07 04:52:25;;;;;;;16.83;9.38;;;1.60;99.90;;;;;;5051319;28;20127;-66
2023/12/07 04:54:51;;;;;;;16.45;9.40;;;1.60;99.90;;;;;;5051152;28;20063;-66
2023/12/07 04:57:16;;;;;;;18.90;9.40;;;1.60;99.90;;;;;;5054332;28;20077;-65
2023/12/07 04:59:46;;;;;;;16.48;10.13;;;1.60;99.90;;;;;;5049629;28;20456;-65
2023/12/07 05:02:14;;;;;;;17.60;9.90;;;1.60;99.90;;;;;;5055641;28;20121;-66
2023/12/07 05:04:39;;;;;;;17.55;9.30;;;1.60;99.90;;;;;;5051377;28;20041;-66
2023/12/07 05:07:05;;;;;;;16.23;10.02;;;1.60;99.90;;;;;;5049256;28;20052;-67
2023/12/07 05:09:31;;;;;;;15.80;9.63;;;1.60;99.90;;;;;;5056196;28;20044;-67
2023/12/07 05:11:58;;;;;;;17.33;10.20;;;1.60;99.90;;;;;;5056293;28;20049;-67
2023/12/07 05:14:23;;;;;;;16.63;10.38;;;1.60;99.90;;;;;;5061236;28;20041;-67
2023/12/07 05:16:58;;;;;;;15.57;9.25;;;1.90;99.90;;;;;;5054608;28;20635;-67
2023/12/07 05:19:25;;;;;;;17.83;10.00;;;1.60;99.90;;;;;;5058958;28;20041;-66
2023/12/07 05:21:51;;;;;;;17.95;10.13;;;1.60;99.90;;;;;;5054543;28;20056;-66
2023/12/07 05:24:17;;;;;;;18.20;9.68;;;1.50;99.90;;;;;;5054506;28;20121;-66
2023/12/07 05:26:46;;;;;;;16.77;9.27;;;1.60;99.90;;;;;;5059199;28;20049;-66
2023/12/07 05:29:13;;;;;;;15.88;10.27;;;1.60;99.90;;;;;;5055492;28;20163;-66
2023/12/07 05:31:39;;;;;;;20.17;10.10;;;1.60;99.90;;;;;;5054392;28;20048;-67
2023/12/07 05:34:06;;;;;;;14.40;9.40;;;2.00;99.90;;;;;;5055527;28;20051;-65
2023/12/07 05:36:31;;;;;;;18.98;10.27;;;1.60;99.90;;;;;;5055669;28;20049;-65
2023/12/07 05:38:57;;;;;;;22.75;10.13;;;1.70;99.90;;;;;;5050490;28;20061;-66
2023/12/07 05:41:23;;;;;;;19.15;10.15;;;1.60;99.90;;;;;;5052876;28;20037;-66
2023/12/07 05:43:49;;;;;;;20.48;10.88;;;1.50;99.90;;;;;;5058239;28;20044;-66
2023/12/07 05:46:15;;;;;;;20.10;11.25;;;2.10;99.90;;;;;;5058486;28;20168;-66
2023/12/07 05:48:41;;;;;;;19.92;11.68;;;1.60;99.90;;;;;;5046363;28;20040;-66
2023/12/07 05:51:16;;;;;;;24.70;11.52;;;1.60;99.90;;;;;;5056119;28;20071;-66
2023/12/07 05:53:42;;;;;;;19.60;10.95;;;1.60;99.90;;;;;;5059613;28;20048;-66
2023/12/07 05:56:08;;;;;;;20.58;11.05;;;1.60;99.90;;;;;;5056083;28;20387;-66
2023/12/07 05:58:33;;;;;;;17.83;10.98;;;1.60;99.90;;;;;;5053362;28;20029;-67
2023/12/07 06:01:02;;;;;;;19.38;11.48;;;1.50;99.90;;;;;;5038200;28;20531;-66
2023/12/07 06:03:28;;;;;;;17.88;10.52;;;1.50;99.90;;;;;;5057687;28;20048;-66
2023/12/07 06:05:53;;;;;;;19.58;11.73;;;1.60;99.90;;;;;;5051891;28;20048;-64
2023/12/07 06:08:19;;;;;;;21.67;12.18;;;1.60;99.90;;;;;;5053245;28;20509;-65
2023/12/07 06:10:45;;;;;;;17.83;11.40;;;1.60;99.90;;;;;;5052731;28;20036;-65
2023/12/07 06:13:13;;;;;;;17.08;10.30;;;1.50;99.90;;;;;;5064302;28;20060;-71
2023/12/07 06:15:39;;;;;;;17.38;10.57;;;1.50;99.90;;;;;;5058061;28;20049;-66
2023/12/07 06:18:05;;;;;;;19.60;11.23;;;1.50;99.90;;;;;;5055988;28;20497;-66
2023/12/07 06:20:31;;;;;;;17.85;10.70;;;2.80;99.90;;;;;;5056617;28;20086;-66
2023/12/07 06:22:57;;;;;;;19.65;11.48;;;1.50;99.90;;;;;;5054710;28;20052;-65
2023/12/07 06:25:23;;;;;;;23.25;11.70;;;1.50;99.90;;;;;;5065553;28;20095;-66
2023/12/07 06:27:49;;;;;;;18.63;10.85;;;1.50;99.90;;;;;;5054014;28;20120;-66
2023/12/07 06:30:15;;;;;;;19.80;11.60;;;1.50;99.90;;;;;;5055429;28;20076;-65
2023/12/07 06:32:41;;;;;;;18.83;11.43;;;1.60;99.90;;;;;;5059040;28;20048;-65
2023/12/07 06:35:07;;;;;;;21.20;11.38;;;1.50;99.90;;;;;;5047655;28;20574;-65
2023/12/07 06:37:33;;;;;;;19.42;11.05;;;1.60;99.90;;;;;;5068072;28;20044;-66
2023/12/07 06:40:00;;;;;;;21.27;11.85;;;1.60;99.90;;;;;;5057018;28;20049;-65
2023/12/07 06:42:26;;;;;;;20.10;10.82;;;2.10;99.90;;;;;;5055303;28;20032;-65
2023/12/07 06:44:51;;;;;;;19.42;11.70;;;1.90;99.90;;;;;;5065397;28;20048;-65
2023/12/07 06:47:18;;;;;;;20.67;11.32;;;1.50;99.90;;;;;;5060374;28;20105;-66
2023/12/07 06:49:44;;;;;;;19.52;11.88;;;1.60;99.90;;;;;;5063218;28;20470;-66
2023/12/07 06:52:10;;;;;;;18.02;10.98;;;1.70;99.90;;;;;;5045911;28;20131;-66
2023/12/07 06:54:36;;;;;;;19.20;11.95;;;1.50;99.90;;;;;;5064230;28;20052;-65
2023/12/07 06:57:02;;;;;;;18.05;10.68;;;1.60;99.90;;;;;;5069918;28;20040;-66
2023/12/07 06:59:28;;;;;;;19.15;10.95;;;1.60;99.90;;;;;;5063328;28;20075;-65
2023/12/07 07:01:54;;;;;;;18.38;11.13;;;1.60;99.90;;;;;;5062088;28;20054;-66
2023/12/07 07:04:20;;;;;;;18.77;10.93;;;1.60;99.90;;;;;;5041397;28;20044;-65
2023/12/07 07:06:46;;;;;;;17.70;10.75;;;1.60;99.90;;;;;;5071660;28;22420;-66
2023/12/07 07:09:12;;;;;;;18.50;10.38;;;1.50;99.90;;;;;;5064695;28;20044;-66
2023/12/07 07:11:38;;;;;;;17.67;10.93;;;1.60;99.90;;;;;;5059020;28;20417;-66
2023/12/07 07:14:04;;;;;;;19.80;11.35;;;1.60;99.90;;;;;;5069916;28;20052;-66
2023/12/07 07:16:30;;;;;;;20.15;11.35;;;1.50;99.90;;;;;;5065337;28;20521;-66
2023/12/07 07:18:56;;;;;;;21.65;11.43;;;1.60;99.90;;;;;;5061912;28;20098;-65
2023/12/07 07:21:22;;;;;;;21.63;11.98;;;1.60;99.90;;;;;;5067747;28;20044;-66
2023/12/07 07:23:48;;;;;;;20.92;11.45;;;1.60;99.90;;;;;;5066336;28;20044;-66
2023/12/07 07:26:16;;;;;;;19.95;11.68;;;1.60;99.90;;;;;;5065959;28;20063;-66
2023/12/07 07:28:45;;;;;;;20.45;11.45;;;1.90;99.90;;;;;;5054497;28;20593;-66
2023/12/07 07:31:11;;;;;;;21.92;12.15;;;1.60;99.90;;;;;;5047745;28;20114;-65
2023/12/07 07:33:37;;;;;;;21.52;12.73;;;2.00;99.90;;;;;;5045404;28;20509;-65
2023/12/07 07:36:03;;;;;;;21.35;11.68;;;1.60;99.90;;;;;;5051578;28;20315;-66
2023/12/07 07:38:28;;;;;;;19.02;11.30;;;1.60;99.90;;;;;;5076570;28;20067;-66
2023/12/07 07:40:54;;;;;;;21.90;13.00;;;1.60;99.90;;;;;;5057931;28;20047;-66
2023/12/07 07:43:20;;;;;;;23.40;11.80;;;1.60;99.90;;;;;;5057149;28;20119;-66
2023/12/07 07:45:45;;;;;;;24.63;12.65;;;1.60;99.90;;;;;;5061049;28;20059;-66
2023/12/07 07:48:12;;;;;;;22.60;12.75;;;1.60;99.90;;;;;;5066599;28;20105;-65
2023/12/07 07:50:38;;;;;;;21.77;12.32;;;1.60;99.90;;;;;;5064985;28;20782;-66
2023/12/07 07:53:03;;;;;;;22.83;13.88;;;1.60;99.90;;;;;;5057771;28;20049;-65
2023/12/07 07:55:30;;;;;;;21.48;12.82;;;1.60;99.90;;;;;;5060321;28;20044;-66
2023/12/07 07:57:56;;;;;;;23.63;13.25;;;2.30;99.90;;;;;;5051285;28;21631;-65
2023/12/07 08:00:25;;;;;;;23.30;13.68;;;1.60;99.90;;;;;;5053793;28;20110;-65
2023/12/07 08:02:51;;;;;;;24.77;13.75;;;1.60;99.90;;;;;;5039505;28;20045;-68
2023/12/07 08:05:18;;;;;;;23.40;13.70;;;1.60;99.90;;;;;;5064024;28;20059;-66
2023/12/07 08:07:43;;;;;;;25.77;14.70;;;1.60;99.90;;;;;;5063324;28;20044;-67
2023/12/07 08:10:09;;;;;;;27.70;15.90;;;1.60;99.90;;;;;;5066689;28;20051;-66
2023/12/07 08:12:35;;;;;;;24.73;14.98;;;1.60;99.90;;;;;;5057831;28;20119;-66
2023/12/07 08:15:01;;;;;;;27.00;15.48;;;1.60;99.90;;;;;;5058565;28;20059;-66
2023/12/07 08:17:27;;;;;;;28.40;16.30;;;1.60;99.90;;;;;;5060828;28;20394;-65
2023/12/07 08:19:53;;;;;;;27.52;15.90;;;1.70;99.90;;;;;;5054325;28;20052;-66
2023/12/07 08:22:20;;;;;;;29.55;15.82;;;1.60;99.90;;;;;;5058943;28;20555;-65
2023/12/07 08:24:45;;;;;;;30.50;15.82;;;1.60;99.90;;;;;;5062537;28;20048;-66
2023/12/07 08:27:11;;;;;;;29.27;16.63;;;1.60;99.90;;;;;;5049918;28;20466;-67
2023/12/07 08:29:37;;;;;;;29.90;16.30;;;1.60;99.90;;;;;;5069638;28;20044;-67
2023/12/07 08:32:03;;;;;;;28.20;15.98;;;1.70;99.90;;;;;;5043683;28;21757;-66
2023/12/07 08:34:30;;;;;;;30.70;16.80;;;1.60;99.90;;;;;;5051496;28;20052;-68
2023/12/07 08:36:55;;;;;;;30.73;16.60;;;1.60;99.90;;;;;;5058032;28;20052;-67
2023/12/07 08:39:21;;;;;;;29.85;16.55;;;1.60;99.90;;;;;;5048554;28;20083;-66
2023/12/07 08:41:47;;;;;;;31.38;17.55;;;1.60;99.90;;;;;;5048180;28;20052;-67
2023/12/07 08:44:13;;;;;;;30.20;17.15;;;1.60;99.90;;;;;;5050076;28;20120;-67
2023/12/07 08:46:39;;;;;;;31.95;18.13;;;1.60;99.90;;;;;;5054109;28;20137;-66
2023/12/07 08:49:04;;;;;;;31.02;17.77;;;1.60;99.90;;;;;;5056301;28;20062;-66
2023/12/07 08:51:30;;;;;;;34.67;18.58;;;1.60;99.90;;;;;;5059566;28;20037;-67
2023/12/07 08:53:56;;;;;;;33.67;18.17;;;2.40;99.90;;;;;;5060712;28;20166;-67
2023/12/07 08:56:21;;;;;;;39.67;20.67;;;1.50;99.90;;;;;;5052156;28;20327;-66
2023/12/07 08:58:47;;;;;;;37.15;20.00;;;1.60;99.90;;;;;;5056598;28;20488;-67
2023/12/07 09:01:13;;;;;;;40.60;20.95;;;1.50;99.90;;;;;;5051061;28;20052;-68
2023/12/07 09:03:39;;;;;;;36.92;21.00;;;1.60;99.90;;;;;;5050727;28;20048;-67
2023/12/07 09:06:05;;;;;;;41.42;22.05;;;1.50;99.90;;;;;;5054434;28;20233;-67
2023/12/07 09:08:31;;;;;;;39.50;22.38;;;1.60;99.90;;;;;;5045565;28;20048;-67
2023/12/07 09:10:57;;;;;;;37.92;21.40;;;1.60;99.90;;;;;;5050935;28;20045;-66
2023/12/07 09:13:22;;;;;;;41.45;21.27;;;1.60;99.90;;;;;;5059361;28;20036;-66
2023/12/07 09:15:48;;;;;;;39.15;22.48;;;1.60;99.90;;;;;;5052320;28;20194;-66
2023/12/07 09:18:14;;;;;;;43.13;22.50;;;1.60;99.90;;;;;;5057820;28;20477;-66
2023/12/07 09:20:46;;;;;;;39.40;21.75;;;2.40;99.90;;;;;;5054384;28;20068;-65
2023/12/07 09:23:15;;;;;;;36.97;20.70;;;1.60;99.90;;;;;;5049965;28;20056;-66
2023/12/07 09:25:41;;;;;;;39.95;20.45;;;1.60;99.90;;;;;;5052193;28;20040;-67
2023/12/07 09:28:07;;;;;;;36.55;20.30;;;1.70;99.90;;;;;;5053185;28;20060;-67
2023/12/07 09:30:33;;;;;;;38.63;21.85;;;1.60;99.90;;;;;;5052325;28;20040;-67
2023/12/07 09:33:00;;;;;;;44.83;22.70;;;1.60;99.90;;;;;;5052168;28;20091;-67
2023/12/07 09:35:25;;;;;;;40.92;20.88;;;1.70;99.90;;;;;;5053273;28;20508;-66
2023/12/07 09:37:51;;;;;;;40.38;22.17;;;1.70;99.90;;;;;;5044478;28;20059;-66
2023/12/07 09:40:19;;;;;;;35.50;21.17;;;1.70;99.90;;;;;;5058410;28;20044;-66
2023/12/07 09:42:46;;;;;;;39.90;20.42;;;1.70;99.90;;;;;;5055218;28;20051;-66
2023/12/07 09:45:14;;;;;;;40.70;19.35;;;2.50;99.90;;;;;;5058814;28;20088;-66
2023/12/07 09:47:41;;;;;;;34.97;20.25;;;1.70;99.90;;;;;;5037520;28;20045;-66
2023/12/07 09:50:08;;;;;;;34.28;20.23;;;1.70;99.90;;;;;;5060933;28;20128;-66
2023/12/07 09:52:37;;;;;;;37.67;19.77;;;1.70;99.90;;;;;;5057308;28;20790;-65
2023/12/07 09:55:04;;;;;;;34.17;19.10;;;1.80;99.90;;;;;;5060361;28;20591;-66
2023/12/07 09:57:31;;;;;;;38.03;20.05;;;1.80;99.90;;;;;;5057143;28;20063;-66
2023/12/07 09:59:57;;;;;;;35.13;19.02;;;1.80;99.90;;;;;;5052198;28;20041;-66
2023/12/07 10:02:23;;;;;;;34.85;20.88;;;1.80;99.90;;;;;;5047092;28;20622;-65
2023/12/07 10:05:04;;;;;;;37.88;20.27;;;2.10;99.90;;;;;;5059658;28;20044;-65
2023/12/07 10:07:41;;;;;;;38.63;18.88;;;1.80;99.90;;;;;;5025286;28;20184;-67
2023/12/07 10:10:07;;;;;;;37.60;19.60;;;1.90;99.90;;;;;;5043397;28;20044;-67
2023/12/07 10:12:35;;;;;;;35.88;19.45;;;1.90;99.90;;;;;;5030717;28;20163;-66
2023/12/07 10:15:11;;;;;;;31.90;19.33;;;1.90;99.90;;;;;;5065309;28;20140;-67
2023/12/07 10:17:54;;;;;;;31.52;18.40;;;2.00;99.90;;;;;;5050661;28;20041;-66
2023/12/07 10:20:27;;;;;;;31.35;18.25;;;2.00;99.90;;;;;;5043857;28;20113;-67
2023/12/07 10:23:03;;;;;;;35.30;18.52;;;2.00;99.90;;;;;;5043833;28;20060;-67
2023/12/07 10:25:34;;;;;;;31.55;17.75;;;2.10;99.90;;;;;;5040688;28;20106;-67
2023/12/07 10:28:01;;;;;;;30.33;17.15;;;2.50;99.90;;;;;;5050590;28;20051;-67
2023/12/07 10:30:30;;;;;;;32.75;16.88;;;2.10;99.90;;;;;;5050166;28;20048;-67
2023/12/07 10:32:56;;;;;;;30.42;17.35;;;2.10;99.90;;;;;;5045733;28;20449;-67
2023/12/07 10:35:22;;;;;;;29.25;16.75;;;2.10;99.90;;;;;;5052276;28;20047;-67
2023/12/07 10:37:48;;;;;;;29.08;17.02;;;2.10;99.90;;;;;;5051816;28;20040;-68
2023/12/07 10:40:14;;;;;;;33.05;17.17;;;2.20;99.90;;;;;;5052252;28;20059;-66
2023/12/07 10:42:42;;;;;;;28.13;16.75;;;2.20;99.90;;;;;;5049330;28;20585;-67
2023/12/07 10:45:09;;;;;;;34.72;17.52;;;2.20;99.90;;;;;;5052335;28;20790;-67
2023/12/07 10:47:37;;;;;;;31.67;17.88;;;2.30;99.90;;;;;;5053757;28;20048;-67
2023/12/07 10:50:10;;;;;;;30.15;16.38;;;2.30;99.90;;;;;;5051684;28;20123;-67
2023/12/07 10:52:44;;;;;;;28.17;16.27;;;2.30;99.90;;;;;;5050233;28;20060;-67
2023/12/07 10:55:30;;;;;;;30.90;16.88;;;2.40;99.90;;;;;;5055711;28;20790;-67
2023/12/07 10:57:59;;;;;;;32.35;17.02;;;2.40;99.90;;;;;;5052948;28;20109;-67
2023/12/07 11:00:28;;;;;;;35.95;17.35;;;3.10;99.90;;;;;;5052400;28;20055;-67
2023/12/07 11:02:55;;;;;;;28.48;16.48;;;2.50;99.90;;;;;;5050787;28;20040;-66
2023/12/07 11:05:21;;;;;;;26.02;15.63;;;2.50;99.90;;;;;;5055197;28;20048;-67
2023/12/07 11:08:07;;;;;;;28.77;15.48;;;2.60;99.90;;;;;;5032851;28;20048;-67
2023/12/07 11:10:43;;;;;;;25.52;15.73;;;2.60;99.90;;;;;;5044037;28;20033;-66
2023/12/07 11:13:20;;;;;;;27.08;15.57;;;2.60;99.90;;;;;;5046194;28;20132;-66
2023/12/07 11:15:46;;;;;;;30.17;15.60;;;2.60;99.90;;;;;;5032913;28;20487;-67
2023/12/07 11:18:13;;;;;;;25.77;15.77;;;2.70;99.90;;;;;;5053120;28;20044;-66
2023/12/07 11:20:47;;;;;;;30.13;15.88;;;2.70;99.90;;;;;;5066723;28;20048;-66
2023/12/07 11:23:20;;;;;;;28.67;16.10;;;2.70;99.90;;;;;;5060145;28;20574;-68
2023/12/07 11:25:47;;;;;;;28.08;16.23;;;2.80;99.90;;;;;;5065218;28;20048;-67
2023/12/07 11:28:15;;;;;;;28.20;16.15;;;3.10;99.90;;;;;;5053999;28;20191;-67
2023/12/07 11:30:47;;;;;;;26.55;17.17;;;2.80;99.90;;;;;;5060634;28;20067;-68
2023/12/07 11:33:15;;;;;;;27.50;16.17;;;3.00;99.90;;;;;;5064190;28;20096;-67
2023/12/07 11:35:59;;;;;;;32.40;18.83;;;2.80;99.90;;;;;;5059915;28;20049;-67
2023/12/07 11:38:25;;;;;;;30.48;18.13;;;2.80;99.90;;;;;;5058416;28;20052;-67
2023/12/07 11:40:51;;;;;;;30.95;18.95;;;2.90;99.90;;;;;;5034899;28;20082;-68
2023/12/07 11:43:32;;;;;;;33.30;20.40;;;2.90;99.90;;;;;;5053761;28;20039;-67
2023/12/07 11:45:59;;;;;;;39.17;20.55;;;2.90;99.90;;;;;;5061197;28;20409;-67
2023/12/07 11:48:25;;;;;;;35.03;19.83;;;2.90;99.90;;;;;;5043776;28;20048;-67
2023/12/07 11:51:00;;;;;;;39.53;22.35;;;2.90;99.90;;;;;;5046056;28;20052;-68
2023/12/07 11:53:31;;;;;;;37.90;21.30;;;2.90;99.90;;;;;;5054270;28;20055;-68
2023/12/07 11:56:07;;;;;;;35.33;22.35;;;2.90;99.90;;;;;;5052654;28;20064;-68
2023/12/07 11:58:34;;;;;;;36.00;21.60;;;2.90;99.90;;;;;;5035908;28;20076;-67
2023/12/07 12:01:01;;;;;;;41.20;23.20;;;2.90;99.90;;;;;;5055507;28;20044;-67
2023/12/07 12:03:29;;;;;;;36.50;21.35;;;2.90;99.90;;;;;;5064555;28;20118;-67
2023/12/07 12:05:56;;;;;;;34.85;21.02;;;2.90;99.90;;;;;;5053616;28;20106;-67
2023/12/07 12:08:22;;;;;;;39.22;22.20;;;2.90;99.90;;;;;;5044087;28;20129;-68
2023/12/07 12:10:53;;;;;;;43.78;24.65;;;2.90;99.90;;;;;;5059296;28;20811;-65
2023/12/07 12:13:19;;;;;;;;;;;3.30;99.90;;;;;;5055226;28;20052;-67
2023/12/07 12:15:48;;;;;;;35.10;21.73;;;2.90;99.90;;;;;;5054947;28;19936;-67
2023/12/07 12:18:14;;;;;;;35.33;20.73;;;2.90;99.90;;;;;;5042964;28;21684;-67
2023/12/07 12:20:39;;;;;;;33.15;20.58;;;2.90;99.90;;;;;;5050550;28;20122;-66
2023/12/07 12:23:05;;;;;;;34.08;20.50;;;2.80;99.90;;;;;;5052786;28;20052;-65
2023/12/07 12:25:32;;;;;;;36.42;20.27;;;3.60;99.90;;;;;;5046226;28;20048;-66
2023/12/07 12:28:03;;;;;;;32.85;18.83;;;2.60;99.90;;;;;;5045573;28;20673;-66
2023/12/07 12:30:30;;;;;;;33.37;18.93;;;2.40;99.90;;;;;;5052224;28;20045;-66
2023/12/07 12:32:56;;;;;;;35.22;19.63;;;2.30;99.90;;;;;;5055056;28;20040;-66
2023/12/07 12:35:22;;;;;;;38.10;20.98;;;2.30;99.90;;;;;;5049813;28;20055;-67
2023/12/07 12:37:49;;;;;;;39.33;19.92;;;2.20;99.90;;;;;;5046869;28;20049;-68
2023/12/07 12:40:20;;;;;;;42.15;20.42;;;2.20;99.90;;;;;;5049750;28;20036;-67